X  ZamknijMetar - Lotnicze dane pogodowe     EPKT Katowice International Airport

Temperatura

-1°C Temperatura

-2°C Punkt rosy

93% Wilgotność



Wiatr

11 km/h

 7 MPH

 3 m/s

 6 KTS



260°
West
Obecne warunki

Przeważnie pochmurno Przeważnie pochmurno
Ciśnienie 1032.92 (hPa) - 30.5 (in)
Widoczność 6.2 (mi) - 10 (km)
Lotnisko
Kod lotniska EPKT

Lokalizacja Katowice International Airport 23 (km)

Metar:
EPKT 182230Z 26006KT 9999 BKN006 M01/M02 Q1033

Czas: 18-01-2022 23:30